sensor_id;sensor_type;location;lat;lon;timestamp;P1;durP1;ratioP1;P2;durP2;ratioP2
31091;SDS011;67728;53.122;12.776;2023-04-03T00:01:15;258.73;;;46.63;;
31091;SDS011;67728;53.122;12.776;2023-04-03T00:02:46;258.13;;;46.70;;
31091;SDS011;67728;53.122;12.776;2023-04-03T00:04:18;258.30;;;46.87;;
31091;SDS011;67728;53.122;12.776;2023-04-03T00:05:51;259.37;;;46.90;;
31091;SDS011;67728;53.122;12.776;2023-04-03T00:07:23;262.37;;;47.47;;
31091;SDS011;67728;53.122;12.776;2023-04-03T00:08:54;260.17;;;47.27;;
31091;SDS011;67728;53.122;12.776;2023-04-03T00:10:26;261.80;;;47.37;;
31091;SDS011;67728;53.122;12.776;2023-04-03T00:11:58;259.83;;;46.97;;
31091;SDS011;67728;53.122;12.776;2023-04-03T00:13:30;258.80;;;46.93;;
31091;SDS011;67728;53.122;12.776;2023-04-03T00:15:04;259.37;;;46.90;;
31091;SDS011;67728;53.122;12.776;2023-04-03T00:16:36;260.43;;;47.00;;
31091;SDS011;67728;53.122;12.776;2023-04-03T00:18:08;257.77;;;46.57;;
31091;SDS011;67728;53.122;12.776;2023-04-03T00:19:39;261.00;;;47.17;;
31091;SDS011;67728;53.122;12.776;2023-04-03T00:21:12;255.87;;;46.23;;
31091;SDS011;67728;53.122;12.776;2023-04-03T00:22:44;257.10;;;46.40;;
31091;SDS011;67728;53.122;12.776;2023-04-03T00:24:15;258.13;;;46.60;;
31091;SDS011;67728;53.122;12.776;2023-04-03T00:25:47;255.10;;;46.17;;
31091;SDS011;67728;53.122;12.776;2023-04-03T00:27:18;255.67;;;46.47;;
31091;SDS011;67728;53.122;12.776;2023-04-03T00:28:49;259.30;;;47.00;;
31091;SDS011;67728;53.122;12.776;2023-04-03T00:30:22;262.00;;;47.27;;
31091;SDS011;67728;53.122;12.776;2023-04-03T00:31:54;257.20;;;46.40;;
31091;SDS011;67728;53.122;12.776;2023-04-03T00:33:26;259.40;;;46.80;;
31091;SDS011;67728;53.122;12.776;2023-04-03T00:34:57;259.37;;;46.80;;
31091;SDS011;67728;53.122;12.776;2023-04-03T00:36:31;258.97;;;46.73;;
31091;SDS011;67728;53.122;12.776;2023-04-03T00:38:02;256.40;;;46.30;;
31091;SDS011;67728;53.122;12.776;2023-04-03T00:39:33;257.20;;;46.57;;
31091;SDS011;67728;53.122;12.776;2023-04-03T00:41:06;256.00;;;46.20;;
31091;SDS011;67728;53.122;12.776;2023-04-03T00:42:39;253.97;;;46.20;;
31091;SDS011;67728;53.122;12.776;2023-04-03T00:44:20;252.57;;;45.97;;
31091;SDS011;67728;53.122;12.776;2023-04-03T00:45:52;257.57;;;46.83;;
31091;SDS011;67728;53.122;12.776;2023-04-03T00:47:25;254.33;;;46.33;;
31091;SDS011;67728;53.122;12.776;2023-04-03T00:48:57;251.47;;;46.30;;
31091;SDS011;67728;53.122;12.776;2023-04-03T00:50:28;251.93;;;46.10;;
31091;SDS011;67728;53.122;12.776;2023-04-03T00:52:01;251.97;;;45.90;;
31091;SDS011;67728;53.122;12.776;2023-04-03T00:53:34;252.60;;;45.97;;
31091;SDS011;67728;53.122;12.776;2023-04-03T00:55:09;255.53;;;46.87;;
31091;SDS011;67728;53.122;12.776;2023-04-03T00:56:40;255.33;;;46.30;;
31091;SDS011;67728;53.122;12.776;2023-04-03T00:58:12;256.70;;;46.67;;
31091;SDS011;67728;53.122;12.776;2023-04-03T00:59:48;259.33;;;47.03;;
31091;SDS011;67728;53.122;12.776;2023-04-03T01:01:22;256.97;;;46.63;;
31091;SDS011;67728;53.122;12.776;2023-04-03T01:02:56;253.83;;;46.60;;
31091;SDS011;67728;53.122;12.776;2023-04-03T01:04:28;254.70;;;46.43;;
31091;SDS011;67728;53.122;12.776;2023-04-03T01:06:01;254.60;;;46.33;;
31091;SDS011;67728;53.122;12.776;2023-04-03T01:07:34;255.17;;;46.60;;
31091;SDS011;67728;53.122;12.776;2023-04-03T01:09:07;254.30;;;46.20;;
31091;SDS011;67728;53.122;12.776;2023-04-03T01:10:38;254.60;;;46.47;;
31091;SDS011;67728;53.122;12.776;2023-04-03T01:12:12;254.47;;;46.43;;
31091;SDS011;67728;53.122;12.776;2023-04-03T01:13:46;254.77;;;46.50;;
31091;SDS011;67728;53.122;12.776;2023-04-03T01:15:20;254.17;;;46.27;;
31091;SDS011;67728;53.122;12.776;2023-04-03T01:16:53;253.07;;;46.27;;
31091;SDS011;67728;53.122;12.776;2023-04-03T01:18:25;257.67;;;47.90;;
31091;SDS011;67728;53.122;12.776;2023-04-03T01:20:02;254.80;;;46.47;;
31091;SDS011;67728;53.122;12.776;2023-04-03T01:22:03;252.80;;;46.23;;
31091;SDS011;67728;53.122;12.776;2023-04-03T01:23:56;253.03;;;46.03;;
31091;SDS011;67728;53.122;12.776;2023-04-03T01:25:34;252.20;;;45.93;;
31091;SDS011;67728;53.122;12.776;2023-04-03T01:27:07;251.33;;;45.73;;
31091;SDS011;67728;53.122;12.776;2023-04-03T01:28:42;253.93;;;46.20;;
31091;SDS011;67728;53.122;12.776;2023-04-03T01:30:12;254.10;;;46.37;;
31091;SDS011;67728;53.122;12.776;2023-04-03T01:31:50;251.97;;;45.83;;
31091;SDS011;67728;53.122;12.776;2023-04-03T01:33:23;254.13;;;46.10;;
31091;SDS011;67728;53.122;12.776;2023-04-03T01:34:53;259.60;;;47.97;;
31091;SDS011;67728;53.122;12.776;2023-04-03T01:36:26;255.43;;;46.60;;
31091;SDS011;67728;53.122;12.776;2023-04-03T01:37:59;254.37;;;46.20;;
31091;SDS011;67728;53.122;12.776;2023-04-03T01:39:31;257.07;;;46.80;;
31091;SDS011;67728;53.122;12.776;2023-04-03T01:41:02;255.80;;;46.63;;
31091;SDS011;67728;53.122;12.776;2023-04-03T01:42:33;253.10;;;46.20;;
31091;SDS011;67728;53.122;12.776;2023-04-03T01:44:05;254.43;;;46.40;;
31091;SDS011;67728;53.122;12.776;2023-04-03T01:45:36;254.03;;;46.23;;
31091;SDS011;67728;53.122;12.776;2023-04-03T01:47:09;254.67;;;46.37;;
31091;SDS011;67728;53.122;12.776;2023-04-03T01:48:41;257.17;;;46.93;;
31091;SDS011;67728;53.122;12.776;2023-04-03T01:50:13;258.67;;;47.03;;
31091;SDS011;67728;53.122;12.776;2023-04-03T01:51:45;253.23;;;46.10;;
31091;SDS011;67728;53.122;12.776;2023-04-03T01:53:16;255.63;;;46.57;;
31091;SDS011;67728;53.122;12.776;2023-04-03T01:54:48;252.27;;;46.00;;
31091;SDS011;67728;53.122;12.776;2023-04-03T01:56:20;257.50;;;46.80;;
31091;SDS011;67728;53.122;12.776;2023-04-03T01:57:52;255.43;;;46.77;;
31091;SDS011;67728;53.122;12.776;2023-04-03T01:59:23;255.80;;;46.83;;
31091;SDS011;67728;53.122;12.776;2023-04-03T02:00:55;254.93;;;46.70;;
31091;SDS011;67728;53.122;12.776;2023-04-03T02:02:28;256.57;;;46.93;;
31091;SDS011;67728;53.122;12.776;2023-04-03T02:04:00;254.63;;;46.63;;
31091;SDS011;67728;53.122;12.776;2023-04-03T02:05:31;252.60;;;46.17;;
31091;SDS011;67728;53.122;12.776;2023-04-03T02:07:02;252.73;;;46.00;;
31091;SDS011;67728;53.122;12.776;2023-04-03T02:08:34;251.67;;;45.83;;
31091;SDS011;67728;53.122;12.776;2023-04-03T02:10:06;255.60;;;46.63;;
31091;SDS011;67728;53.122;12.776;2023-04-03T02:11:37;254.77;;;46.50;;
31091;SDS011;67728;53.122;12.776;2023-04-03T02:13:08;252.10;;;45.90;;
31091;SDS011;67728;53.122;12.776;2023-04-03T02:14:40;252.10;;;46.10;;
31091;SDS011;67728;53.122;12.776;2023-04-03T02:16:11;253.73;;;46.17;;
31091;SDS011;67728;53.122;12.776;2023-04-03T02:17:44;252.07;;;46.00;;
31091;SDS011;67728;53.122;12.776;2023-04-03T02:19:16;253.67;;;46.23;;
31091;SDS011;67728;53.122;12.776;2023-04-03T02:20:48;253.30;;;46.00;;
31091;SDS011;67728;53.122;12.776;2023-04-03T02:22:19;252.70;;;46.10;;
31091;SDS011;67728;53.122;12.776;2023-04-03T02:23:51;251.60;;;45.80;;
31091;SDS011;67728;53.122;12.776;2023-04-03T02:25:23;257.70;;;46.87;;
31091;SDS011;67728;53.122;12.776;2023-04-03T02:26:54;251.83;;;45.83;;
31091;SDS011;67728;53.122;12.776;2023-04-03T02:28:26;254.83;;;46.43;;
31091;SDS011;67728;53.122;12.776;2023-04-03T02:29:57;253.23;;;46.07;;
31091;SDS011;67728;53.122;12.776;2023-04-03T02:31:29;252.83;;;46.10;;
31091;SDS011;67728;53.122;12.776;2023-04-03T02:33:02;252.13;;;45.93;;
31091;SDS011;67728;53.122;12.776;2023-04-03T02:34:33;258.50;;;56.73;;
31091;SDS011;67728;53.122;12.776;2023-04-03T02:36:05;250.67;;;45.73;;
31091;SDS011;67728;53.122;12.776;2023-04-03T02:37:38;251.40;;;45.73;;
31091;SDS011;67728;53.122;12.776;2023-04-03T02:39:10;249.20;;;45.53;;
31091;SDS011;67728;53.122;12.776;2023-04-03T02:40:42;248.77;;;45.43;;
31091;SDS011;67728;53.122;12.776;2023-04-03T02:42:14;252.67;;;46.07;;
31091;SDS011;67728;53.122;12.776;2023-04-03T02:43:45;251.10;;;45.70;;
31091;SDS011;67728;53.122;12.776;2023-04-03T02:45:17;257.37;;;47.67;;
31091;SDS011;67728;53.122;12.776;2023-04-03T02:46:48;252.27;;;45.87;;
31091;SDS011;67728;53.122;12.776;2023-04-03T02:48:22;264.60;;;63.23;;
31091;SDS011;67728;53.122;12.776;2023-04-03T02:49:54;249.37;;;45.50;;
31091;SDS011;67728;53.122;12.776;2023-04-03T02:51:25;249.73;;;45.67;;
31091;SDS011;67728;53.122;12.776;2023-04-03T02:52:57;249.10;;;45.50;;
31091;SDS011;67728;53.122;12.776;2023-04-03T02:54:28;252.87;;;46.13;;
31091;SDS011;67728;53.122;12.776;2023-04-03T02:56:00;248.47;;;45.47;;
31091;SDS011;67728;53.122;12.776;2023-04-03T02:57:31;249.83;;;45.50;;
31091;SDS011;67728;53.122;12.776;2023-04-03T02:59:02;250.83;;;45.80;;
31091;SDS011;67728;53.122;12.776;2023-04-03T03:00:35;252.17;;;46.00;;
31091;SDS011;67728;53.122;12.776;2023-04-03T03:02:06;252.47;;;46.00;;
31091;SDS011;67728;53.122;12.776;2023-04-03T03:03:39;251.30;;;45.73;;
31091;SDS011;67728;53.122;12.776;2023-04-03T03:05:10;252.07;;;45.97;;
31091;SDS011;67728;53.122;12.776;2023-04-03T03:06:42;251.27;;;45.80;;
31091;SDS011;67728;53.122;12.776;2023-04-03T03:08:12;250.50;;;45.70;;
31091;SDS011;67728;53.122;12.776;2023-04-03T03:09:44;252.67;;;46.13;;
31091;SDS011;67728;53.122;12.776;2023-04-03T03:11:16;250.80;;;45.83;;
31091;SDS011;67728;53.122;12.776;2023-04-03T03:12:47;250.07;;;45.60;;
31091;SDS011;67728;53.122;12.776;2023-04-03T03:14:18;249.53;;;45.37;;
31091;SDS011;67728;53.122;12.776;2023-04-03T03:15:49;253.37;;;46.17;;
31091;SDS011;67728;53.122;12.776;2023-04-03T03:17:21;253.70;;;46.30;;
31091;SDS011;67728;53.122;12.776;2023-04-03T03:18:54;252.17;;;46.00;;
31091;SDS011;67728;53.122;12.776;2023-04-03T03:20:25;253.03;;;46.17;;
31091;SDS011;67728;53.122;12.776;2023-04-03T03:21:57;252.27;;;46.03;;
31091;SDS011;67728;53.122;12.776;2023-04-03T03:23:29;250.73;;;45.93;;
31091;SDS011;67728;53.122;12.776;2023-04-03T03:25:03;249.67;;;45.60;;
31091;SDS011;67728;53.122;12.776;2023-04-03T03:26:36;250.13;;;45.70;;
31091;SDS011;67728;53.122;12.776;2023-04-03T03:28:07;249.83;;;45.60;;
31091;SDS011;67728;53.122;12.776;2023-04-03T03:29:39;251.57;;;45.80;;
31091;SDS011;67728;53.122;12.776;2023-04-03T03:31:11;249.80;;;45.70;;
31091;SDS011;67728;53.122;12.776;2023-04-03T03:32:42;249.83;;;45.60;;
31091;SDS011;67728;53.122;12.776;2023-04-03T03:34:15;253.80;;;46.30;;
31091;SDS011;67728;53.122;12.776;2023-04-03T03:35:47;253.70;;;47.70;;
31091;SDS011;67728;53.122;12.776;2023-04-03T03:37:18;248.07;;;45.40;;
31091;SDS011;67728;53.122;12.776;2023-04-03T03:38:49;248.73;;;45.77;;
31091;SDS011;67728;53.122;12.776;2023-04-03T03:40:21;248.63;;;46.07;;
31091;SDS011;67728;53.122;12.776;2023-04-03T03:41:52;252.10;;;46.17;;
31091;SDS011;67728;53.122;12.776;2023-04-03T03:43:23;248.47;;;45.40;;
31091;SDS011;67728;53.122;12.776;2023-04-03T03:44:55;247.23;;;45.30;;
31091;SDS011;67728;53.122;12.776;2023-04-03T03:46:26;249.30;;;45.63;;
31091;SDS011;67728;53.122;12.776;2023-04-03T03:47:57;250.60;;;45.93;;
31091;SDS011;67728;53.122;12.776;2023-04-03T03:49:30;246.87;;;45.20;;
31091;SDS011;67728;53.122;12.776;2023-04-03T03:51:02;246.40;;;47.07;;
31091;SDS011;67728;53.122;12.776;2023-04-03T03:52:34;247.20;;;45.43;;
31091;SDS011;67728;53.122;12.776;2023-04-03T03:54:06;244.73;;;45.00;;
31091;SDS011;67728;53.122;12.776;2023-04-03T03:55:38;250.43;;;45.70;;
31091;SDS011;67728;53.122;12.776;2023-04-03T03:57:09;250.93;;;45.40;;
31091;SDS011;67728;53.122;12.776;2023-04-03T03:58:41;250.40;;;45.50;;
31091;SDS011;67728;53.122;12.776;2023-04-03T04:00:13;249.93;;;45.43;;
31091;SDS011;67728;53.122;12.776;2023-04-03T04:01:45;249.53;;;45.50;;
31091;SDS011;67728;53.122;12.776;2023-04-03T04:03:17;250.57;;;45.60;;
31091;SDS011;67728;53.122;12.776;2023-04-03T04:04:49;250.97;;;50.10;;
31091;SDS011;67728;53.122;12.776;2023-04-03T04:06:21;248.23;;;45.30;;
31091;SDS011;67728;53.122;12.776;2023-04-03T04:07:52;248.57;;;45.50;;
31091;SDS011;67728;53.122;12.776;2023-04-03T04:09:24;249.83;;;45.73;;
31091;SDS011;67728;53.122;12.776;2023-04-03T04:10:55;250.23;;;45.97;;
31091;SDS011;67728;53.122;12.776;2023-04-03T04:12:27;248.97;;;45.50;;
31091;SDS011;67728;53.122;12.776;2023-04-03T04:13:59;250.03;;;45.73;;
31091;SDS011;67728;53.122;12.776;2023-04-03T04:15:30;249.60;;;45.60;;
31091;SDS011;67728;53.122;12.776;2023-04-03T04:17:02;248.23;;;45.17;;
31091;SDS011;67728;53.122;12.776;2023-04-03T04:18:33;246.10;;;45.50;;
31091;SDS011;67728;53.122;12.776;2023-04-03T04:20:07;246.40;;;44.97;;
31091;SDS011;67728;53.122;12.776;2023-04-03T04:21:39;248.00;;;49.63;;
31091;SDS011;67728;53.122;12.776;2023-04-03T04:23:11;250.90;;;52.37;;
31091;SDS011;67728;53.122;12.776;2023-04-03T04:24:43;248.40;;;45.30;;
31091;SDS011;67728;53.122;12.776;2023-04-03T04:26:14;248.00;;;45.70;;
31091;SDS011;67728;53.122;12.776;2023-04-03T04:27:46;248.97;;;45.80;;
31091;SDS011;67728;53.122;12.776;2023-04-03T04:29:18;247.60;;;45.30;;
31091;SDS011;67728;53.122;12.776;2023-04-03T04:30:49;250.23;;;46.10;;
31091;SDS011;67728;53.122;12.776;2023-04-03T04:32:21;248.10;;;46.00;;
31091;SDS011;67728;53.122;12.776;2023-04-03T04:33:52;257.93;;;47.67;;
31091;SDS011;67728;53.122;12.776;2023-04-03T04:35:25;265.03;;;48.87;;
31091;SDS011;67728;53.122;12.776;2023-04-03T04:36:57;263.63;;;48.23;;
31091;SDS011;67728;53.122;12.776;2023-04-03T04:38:29;253.63;;;46.53;;
31091;SDS011;67728;53.122;12.776;2023-04-03T04:40:01;247.67;;;45.67;;
31091;SDS011;67728;53.122;12.776;2023-04-03T04:41:33;247.17;;;45.73;;
31091;SDS011;67728;53.122;12.776;2023-04-03T04:43:05;246.60;;;45.53;;
31091;SDS011;67728;53.122;12.776;2023-04-03T04:44:37;247.50;;;45.53;;
31091;SDS011;67728;53.122;12.776;2023-04-03T04:46:09;252.13;;;46.40;;
31091;SDS011;67728;53.122;12.776;2023-04-03T04:47:42;246.17;;;45.40;;
31091;SDS011;67728;53.122;12.776;2023-04-03T04:49:14;249.83;;;45.77;;
31091;SDS011;67728;53.122;12.776;2023-04-03T04:50:47;251.33;;;48.03;;
31091;SDS011;67728;53.122;12.776;2023-04-03T04:52:19;250.27;;;47.67;;
31091;SDS011;67728;53.122;12.776;2023-04-03T04:53:50;252.03;;;47.90;;
31091;SDS011;67728;53.122;12.776;2023-04-03T04:55:22;247.90;;;47.37;;
31091;SDS011;67728;53.122;12.776;2023-04-03T04:56:53;252.33;;;46.37;;
31091;SDS011;67728;53.122;12.776;2023-04-03T04:58:25;251.07;;;46.23;;
31091;SDS011;67728;53.122;12.776;2023-04-03T04:59:57;253.07;;;46.47;;
31091;SDS011;67728;53.122;12.776;2023-04-03T05:01:28;256.03;;;46.97;;
31091;SDS011;67728;53.122;12.776;2023-04-03T05:03:00;255.53;;;46.87;;
31091;SDS011;67728;53.122;12.776;2023-04-03T05:04:31;252.30;;;46.30;;
31091;SDS011;67728;53.122;12.776;2023-04-03T05:06:05;254.60;;;46.87;;
31091;SDS011;67728;53.122;12.776;2023-04-03T05:07:37;252.40;;;46.40;;
31091;SDS011;67728;53.122;12.776;2023-04-03T05:09:08;253.00;;;46.73;;
31091;SDS011;67728;53.122;12.776;2023-04-03T05:10:41;253.60;;;46.57;;
31091;SDS011;67728;53.122;12.776;2023-04-03T05:12:13;252.47;;;46.20;;
31091;SDS011;67728;53.122;12.776;2023-04-03T05:13:44;253.10;;;46.57;;
31091;SDS011;67728;53.122;12.776;2023-04-03T05:15:16;255.93;;;47.00;;
31091;SDS011;67728;53.122;12.776;2023-04-03T05:16:47;252.67;;;46.23;;
31091;SDS011;67728;53.122;12.776;2023-04-03T05:18:22;253.47;;;46.60;;
31091;SDS011;67728;53.122;12.776;2023-04-03T05:19:54;254.27;;;47.07;;
31091;SDS011;67728;53.122;12.776;2023-04-03T05:21:27;253.93;;;46.90;;
31091;SDS011;67728;53.122;12.776;2023-04-03T05:23:02;252.50;;;46.33;;
31091;SDS011;67728;53.122;12.776;2023-04-03T05:24:33;253.83;;;46.87;;
31091;SDS011;67728;53.122;12.776;2023-04-03T05:26:05;250.37;;;46.20;;
31091;SDS011;67728;53.122;12.776;2023-04-03T05:27:37;251.67;;;46.27;;
31091;SDS011;67728;53.122;12.776;2023-04-03T05:29:08;252.00;;;46.27;;
31091;SDS011;67728;53.122;12.776;2023-04-03T05:30:40;253.03;;;46.53;;
31091;SDS011;67728;53.122;12.776;2023-04-03T05:32:12;253.73;;;46.77;;
31091;SDS011;67728;53.122;12.776;2023-04-03T05:33:43;254.13;;;47.00;;
31091;SDS011;67728;53.122;12.776;2023-04-03T05:35:16;255.53;;;47.20;;
31091;SDS011;67728;53.122;12.776;2023-04-03T05:36:49;254.13;;;46.73;;
31091;SDS011;67728;53.122;12.776;2023-04-03T05:38:20;255.03;;;46.87;;
31091;SDS011;67728;53.122;12.776;2023-04-03T05:39:51;254.23;;;46.67;;
31091;SDS011;67728;53.122;12.776;2023-04-03T05:41:23;260.20;;;47.70;;
31091;SDS011;67728;53.122;12.776;2023-04-03T05:42:55;257.43;;;47.20;;
31091;SDS011;67728;53.122;12.776;2023-04-03T05:44:26;253.93;;;46.63;;
31091;SDS011;67728;53.122;12.776;2023-04-03T05:45:58;256.03;;;46.93;;
31091;SDS011;67728;53.122;12.776;2023-04-03T05:47:30;256.27;;;47.27;;
31091;SDS011;67728;53.122;12.776;2023-04-03T05:49:02;256.40;;;47.00;;
31091;SDS011;67728;53.122;12.776;2023-04-03T05:50:33;259.50;;;47.50;;
31091;SDS011;67728;53.122;12.776;2023-04-03T05:52:08;257.90;;;47.43;;
31091;SDS011;67728;53.122;12.776;2023-04-03T05:53:48;257.70;;;47.20;;
31091;SDS011;67728;53.122;12.776;2023-04-03T05:55:23;259.37;;;47.57;;
31091;SDS011;67728;53.122;12.776;2023-04-03T05:56:55;259.13;;;47.47;;
31091;SDS011;67728;53.122;12.776;2023-04-03T05:58:27;257.27;;;47.07;;
31091;SDS011;67728;53.122;12.776;2023-04-03T05:59:58;257.97;;;47.17;;
31091;SDS011;67728;53.122;12.776;2023-04-03T06:01:30;262.63;;;48.80;;
31091;SDS011;67728;53.122;12.776;2023-04-03T06:03:01;256.80;;;47.00;;
31091;SDS011;67728;53.122;12.776;2023-04-03T06:04:33;256.30;;;50.47;;
31091;SDS011;67728;53.122;12.776;2023-04-03T06:06:05;260.27;;;51.67;;
31091;SDS011;67728;53.122;12.776;2023-04-03T06:07:39;260.17;;;49.07;;
31091;SDS011;67728;53.122;12.776;2023-04-03T06:09:11;258.27;;;50.00;;
31091;SDS011;67728;53.122;12.776;2023-04-03T06:10:43;257.87;;;47.00;;
31091;SDS011;67728;53.122;12.776;2023-04-03T06:12:14;260.63;;;51.00;;
31091;SDS011;67728;53.122;12.776;2023-04-03T06:13:46;260.10;;;47.83;;
31091;SDS011;67728;53.122;12.776;2023-04-03T06:15:18;277.17;;;64.20;;
31091;SDS011;67728;53.122;12.776;2023-04-03T06:16:50;266.53;;;55.80;;
31091;SDS011;67728;53.122;12.776;2023-04-03T06:18:22;264.70;;;48.03;;
31091;SDS011;67728;53.122;12.776;2023-04-03T06:19:53;265.07;;;48.07;;
31091;SDS011;67728;53.122;12.776;2023-04-03T06:21:25;260.77;;;47.50;;
31091;SDS011;67728;53.122;12.776;2023-04-03T06:22:58;262.20;;;47.70;;
31091;SDS011;67728;53.122;12.776;2023-04-03T06:24:30;262.47;;;47.60;;
31091;SDS011;67728;53.122;12.776;2023-04-03T06:26:02;264.23;;;48.07;;
31091;SDS011;67728;53.122;12.776;2023-04-03T06:27:34;264.67;;;47.97;;
31091;SDS011;67728;53.122;12.776;2023-04-03T06:29:05;262.77;;;47.53;;
31091;SDS011;67728;53.122;12.776;2023-04-03T06:30:37;264.63;;;47.97;;
31091;SDS011;67728;53.122;12.776;2023-04-03T06:32:09;267.90;;;48.67;;
31091;SDS011;67728;53.122;12.776;2023-04-03T06:33:40;264.10;;;47.97;;
31091;SDS011;67728;53.122;12.776;2023-04-03T06:35:12;265.30;;;48.13;;
31091;SDS011;67728;53.122;12.776;2023-04-03T06:36:43;266.23;;;48.30;;
31091;SDS011;67728;53.122;12.776;2023-04-03T06:38:17;266.37;;;48.57;;
31091;SDS011;67728;53.122;12.776;2023-04-03T06:39:49;267.20;;;48.50;;
31091;SDS011;67728;53.122;12.776;2023-04-03T06:41:20;268.93;;;48.57;;
31091;SDS011;67728;53.122;12.776;2023-04-03T06:42:52;269.20;;;48.80;;
31091;SDS011;67728;53.122;12.776;2023-04-03T06:44:24;266.67;;;48.47;;
31091;SDS011;67728;53.122;12.776;2023-04-03T06:45:56;267.33;;;48.53;;
31091;SDS011;67728;53.122;12.776;2023-04-03T06:47:27;269.37;;;49.03;;
31091;SDS011;67728;53.122;12.776;2023-04-03T06:48:59;267.93;;;48.30;;
31091;SDS011;67728;53.122;12.776;2023-04-03T06:50:32;274.30;;;49.53;;
31091;SDS011;67728;53.122;12.776;2023-04-03T06:52:03;269.73;;;48.67;;
31091;SDS011;67728;53.122;12.776;2023-04-03T06:53:36;269.73;;;48.60;;
31091;SDS011;67728;53.122;12.776;2023-04-03T06:55:08;272.30;;;49.70;;
31091;SDS011;67728;53.122;12.776;2023-04-03T06:56:40;268.83;;;48.77;;
31091;SDS011;67728;53.122;12.776;2023-04-03T06:58:12;268.77;;;48.57;;
31091;SDS011;67728;53.122;12.776;2023-04-03T06:59:45;274.10;;;49.73;;
31091;SDS011;67728;53.122;12.776;2023-04-03T07:01:17;270.40;;;48.60;;
31091;SDS011;67728;53.122;12.776;2023-04-03T07:02:50;267.87;;;48.23;;
31091;SDS011;67728;53.122;12.776;2023-04-03T07:04:21;273.03;;;49.40;;
31091;SDS011;67728;53.122;12.776;2023-04-03T07:05:53;270.17;;;48.77;;
31091;SDS011;67728;53.122;12.776;2023-04-03T07:07:25;272.93;;;49.33;;
31091;SDS011;67728;53.122;12.776;2023-04-03T07:08:58;272.50;;;49.30;;
31091;SDS011;67728;53.122;12.776;2023-04-03T07:10:30;282.50;;;50.60;;
31091;SDS011;67728;53.122;12.776;2023-04-03T07:12:02;275.23;;;49.73;;
31091;SDS011;67728;53.122;12.776;2023-04-03T07:13:33;272.60;;;49.33;;
31091;SDS011;67728;53.122;12.776;2023-04-03T07:15:06;273.00;;;49.30;;
31091;SDS011;67728;53.122;12.776;2023-04-03T07:16:39;273.17;;;49.30;;
31091;SDS011;67728;53.122;12.776;2023-04-03T07:18:11;275.53;;;49.53;;
31091;SDS011;67728;53.122;12.776;2023-04-03T07:19:42;273.13;;;49.07;;
31091;SDS011;67728;53.122;12.776;2023-04-03T07:21:14;277.43;;;50.83;;
31091;SDS011;67728;53.122;12.776;2023-04-03T07:22:45;274.17;;;49.37;;
31091;SDS011;67728;53.122;12.776;2023-04-03T07:24:18;277.67;;;49.97;;
31091;SDS011;67728;53.122;12.776;2023-04-03T07:25:50;290.30;;;54.80;;
31091;SDS011;67728;53.122;12.776;2023-04-03T07:27:23;279.63;;;50.40;;
31091;SDS011;67728;53.122;12.776;2023-04-03T07:28:55;279.93;;;50.30;;
31091;SDS011;67728;53.122;12.776;2023-04-03T07:30:26;277.73;;;49.80;;
31091;SDS011;67728;53.122;12.776;2023-04-03T07:31:58;287.17;;;51.33;;
31091;SDS011;67728;53.122;12.776;2023-04-03T07:33:30;278.40;;;49.87;;
31091;SDS011;67728;53.122;12.776;2023-04-03T07:35:02;278.93;;;50.27;;
31091;SDS011;67728;53.122;12.776;2023-04-03T07:36:34;279.67;;;50.40;;
31091;SDS011;67728;53.122;12.776;2023-04-03T07:38:06;289.83;;;52.90;;
31091;SDS011;67728;53.122;12.776;2023-04-03T07:39:39;291.27;;;53.00;;
31091;SDS011;67728;53.122;12.776;2023-04-03T07:41:15;286.00;;;51.53;;
31091;SDS011;67728;53.122;12.776;2023-04-03T07:42:48;278.93;;;50.67;;
31091;SDS011;67728;53.122;12.776;2023-04-03T07:44:20;282.73;;;51.13;;
31091;SDS011;67728;53.122;12.776;2023-04-03T07:45:51;281.93;;;51.10;;
31091;SDS011;67728;53.122;12.776;2023-04-03T07:47:24;286.63;;;51.83;;
31091;SDS011;67728;53.122;12.776;2023-04-03T07:48:56;282.10;;;50.90;;
31091;SDS011;67728;53.122;12.776;2023-04-03T07:50:27;282.33;;;51.10;;
31091;SDS011;67728;53.122;12.776;2023-04-03T07:52:00;278.63;;;50.40;;
31091;SDS011;67728;53.122;12.776;2023-04-03T07:53:32;279.10;;;50.57;;
31091;SDS011;67728;53.122;12.776;2023-04-03T07:55:08;278.57;;;50.53;;
31091;SDS011;67728;53.122;12.776;2023-04-03T07:56:40;278.57;;;50.60;;
31091;SDS011;67728;53.122;12.776;2023-04-03T07:58:13;280.30;;;51.67;;
31091;SDS011;67728;53.122;12.776;2023-04-03T07:59:46;283.47;;;50.90;;
31091;SDS011;67728;53.122;12.776;2023-04-03T08:01:18;288.63;;;52.23;;
31091;SDS011;67728;53.122;12.776;2023-04-03T08:02:49;283.83;;;50.97;;
31091;SDS011;67728;53.122;12.776;2023-04-03T08:04:22;284.93;;;51.23;;
31091;SDS011;67728;53.122;12.776;2023-04-03T08:05:53;289.93;;;52.33;;
31091;SDS011;67728;53.122;12.776;2023-04-03T08:07:25;291.00;;;52.57;;
31091;SDS011;67728;53.122;12.776;2023-04-03T08:08:57;290.10;;;51.97;;
31091;SDS011;67728;53.122;12.776;2023-04-03T08:10:30;288.57;;;52.27;;
31091;SDS011;67728;53.122;12.776;2023-04-03T08:12:03;300.80;;;63.43;;
31091;SDS011;67728;53.122;12.776;2023-04-03T08:13:34;293.57;;;52.80;;
31091;SDS011;67728;53.122;12.776;2023-04-03T08:15:06;291.93;;;58.03;;
31091;SDS011;67728;53.122;12.776;2023-04-03T08:16:39;288.03;;;55.73;;
31091;SDS011;67728;53.122;12.776;2023-04-03T08:18:10;285.70;;;54.57;;
31091;SDS011;67728;53.122;12.776;2023-04-03T08:19:42;290.00;;;62.20;;
31091;SDS011;67728;53.122;12.776;2023-04-03T08:21:14;285.27;;;52.67;;
31091;SDS011;67728;53.122;12.776;2023-04-03T08:22:45;288.80;;;53.17;;
31091;SDS011;67728;53.122;12.776;2023-04-03T08:24:17;293.07;;;53.00;;
31091;SDS011;67728;53.122;12.776;2023-04-03T08:25:50;293.13;;;53.10;;
31091;SDS011;67728;53.122;12.776;2023-04-03T08:27:22;294.13;;;54.07;;
31091;SDS011;67728;53.122;12.776;2023-04-03T08:28:53;288.80;;;52.40;;
31091;SDS011;67728;53.122;12.776;2023-04-03T08:30:25;292.83;;;53.60;;
31091;SDS011;67728;53.122;12.776;2023-04-03T08:31:57;286.60;;;53.43;;
31091;SDS011;67728;53.122;12.776;2023-04-03T08:33:28;290.70;;;52.97;;
31091;SDS011;67728;53.122;12.776;2023-04-03T08:35:00;296.73;;;55.37;;
31091;SDS011;67728;53.122;12.776;2023-04-03T08:36:31;284.57;;;52.17;;
31091;SDS011;67728;53.122;12.776;2023-04-03T08:38:03;281.57;;;51.77;;
31091;SDS011;67728;53.122;12.776;2023-04-03T08:39:35;284.20;;;54.00;;
31091;SDS011;67728;53.122;12.776;2023-04-03T08:41:11;286.83;;;52.20;;
31091;SDS011;67728;53.122;12.776;2023-04-03T08:42:49;287.43;;;52.23;;
31091;SDS011;67728;53.122;12.776;2023-04-03T08:44:31;286.93;;;52.37;;